createdAt,value
2023-01-11T07:05:12.722Z,5.40
2023-01-11T07:07:40.536Z,10.50
2023-01-11T07:10:10.050Z,10.50
2023-01-11T07:12:37.083Z,10.60
2023-01-11T07:15:09.414Z,10.60
2023-01-11T07:17:38.600Z,10.60
2023-01-11T07:20:06.281Z,10.60
2023-01-11T07:22:36.977Z,10.60
2023-01-11T07:25:05.182Z,10.60
2023-01-11T07:27:32.169Z,10.60
2023-01-11T07:29:59.924Z,10.60
2023-01-11T07:32:27.671Z,10.70
2023-01-11T07:34:55.219Z,10.80
2023-01-11T07:37:28.217Z,10.80
2023-01-11T07:39:56.227Z,10.80
2023-01-11T07:42:41.726Z,10.80
2023-01-11T07:45:08.939Z,10.70
2023-01-11T07:47:35.712Z,10.80
2023-01-11T07:50:02.432Z,10.80
2023-01-11T07:52:29.171Z,10.80
2023-01-11T07:55:02.117Z,10.90
2023-01-11T07:57:32.463Z,10.80
2023-01-11T07:59:59.158Z,10.90
2023-01-11T08:02:25.991Z,10.90
2023-01-11T08:04:52.819Z,10.90
2023-01-11T08:07:19.666Z,10.90
2023-01-11T08:09:46.377Z,10.90
2023-01-11T08:12:31.387Z,10.90
2023-01-11T08:14:58.105Z,10.90
2023-01-11T08:17:24.906Z,11.00
2023-01-11T08:19:51.839Z,10.90
2023-01-11T08:22:18.639Z,10.90
2023-01-11T08:24:45.380Z,10.90
2023-01-11T08:27:12.106Z,10.80
2023-01-11T08:29:39.959Z,10.80
2023-01-11T08:32:06.815Z,10.70
2023-01-11T08:34:34.838Z,10.70
2023-01-11T08:37:02.211Z,10.70
2023-01-11T08:39:31.046Z,10.60
2023-01-11T08:41:58.980Z,10.60
2023-01-11T08:44:33.783Z,10.50
2023-01-11T08:47:01.928Z,10.50
2023-01-11T08:49:30.356Z,10.50
2023-01-11T08:51:57.455Z,10.50
2023-01-11T08:54:24.998Z,10.40
2023-01-11T08:56:51.849Z,10.40
2023-01-11T08:59:20.003Z,10.40
2023-01-11T09:01:47.253Z,10.40
2023-01-11T09:04:24.247Z,10.30
2023-01-11T09:06:53.067Z,10.30
2023-01-11T09:09:19.948Z,10.30
2023-01-11T09:11:56.977Z,10.30
2023-01-11T09:14:26.018Z,10.30
2023-01-11T09:16:53.984Z,10.30
2023-01-11T09:19:21.522Z,10.30
2023-01-11T09:21:49.042Z,10.30
2023-01-11T09:24:15.868Z,10.20
2023-01-11T09:26:43.658Z,10.20
2023-01-11T09:29:11.162Z,10.20
2023-01-11T09:31:38.514Z,10.20
2023-01-11T09:34:07.128Z,10.20
2023-01-11T09:36:37.416Z,10.20
2023-01-11T09:39:08.436Z,10.20
2023-01-11T09:42:29.449Z,10.20
2023-01-11T09:45:05.249Z,10.20
2023-01-11T09:47:41.064Z,10.10
2023-01-11T09:50:19.807Z,10.10
2023-01-11T09:52:52.672Z,10.10
2023-01-11T09:55:52.890Z,10.10
2023-01-11T09:58:32.433Z,10.10
2023-01-11T10:01:11.034Z,10.10
2023-01-11T10:04:11.796Z,10.10
2023-01-11T10:07:03.707Z,10.10
2023-01-11T10:18:27.905Z,10.10
2023-01-11T10:18:52.867Z,10.10
2023-01-11T10:21:45.709Z,10.10
2023-01-11T10:24:17.552Z,10.10
2023-01-11T10:26:45.530Z,10.10
2023-01-11T10:29:54.031Z,10.10
2023-01-11T10:32:54.231Z,10.10
2023-01-11T10:35:47.803Z,10.10
2023-01-11T10:38:43.542Z,10.10
2023-01-11T10:41:29.999Z,10.10
2023-01-11T10:44:19.212Z,10.10
2023-01-11T10:46:53.762Z,10.10
2023-01-11T10:49:45.435Z,10.10
2023-01-11T10:52:22.541Z,10.10
2023-01-11T10:54:54.666Z,10.10
2023-01-11T10:57:27.939Z,10.00
2023-01-11T11:00:18.943Z,10.00
2023-01-11T11:02:54.442Z,10.10
2023-01-11T11:05:41.571Z,10.10
2023-01-11T11:08:27.003Z,10.30
2023-01-11T11:11:02.557Z,10.40
2023-01-11T11:13:38.398Z,10.40
2023-01-11T11:16:23.523Z,10.50
2023-01-11T11:18:52.075Z,10.50
2023-01-11T11:21:41.402Z,10.60
2023-01-11T11:24:14.106Z,10.60
2023-01-11T11:26:46.087Z,10.60
2023-01-11T11:29:22.575Z,10.60
2023-01-11T11:31:50.330Z,10.50
2023-01-11T11:34:22.284Z,10.50
2023-01-11T11:36:51.568Z,10.50
2023-01-11T11:39:30.899Z,10.50
2023-01-11T11:42:08.419Z,10.50
2023-01-11T11:44:35.480Z,10.60
2023-01-11T11:47:13.927Z,10.60
2023-01-11T11:49:41.997Z,10.50
2023-01-11T11:52:15.118Z,10.40
2023-01-11T11:55:05.867Z,10.40
2023-01-11T11:57:42.676Z,10.50
2023-01-11T12:00:31.126Z,10.60
2023-01-11T12:03:18.533Z,10.60
2023-01-11T12:06:01.153Z,10.50
2023-01-11T12:08:29.952Z,10.50
2023-01-11T12:11:00.160Z,10.50
2023-01-11T12:13:34.383Z,10.40
2023-01-11T12:16:07.604Z,10.50
2023-01-11T12:18:44.400Z,10.40
2023-01-11T12:21:21.909Z,10.30
2023-01-11T12:24:08.576Z,10.30
2023-01-11T12:27:00.373Z,10.40
2023-01-11T12:29:27.050Z,10.70
2023-01-11T12:32:25.490Z,10.90
2023-01-11T12:35:17.695Z,10.80
2023-01-11T12:37:53.279Z,10.90
2023-01-11T12:40:40.970Z,11.00
2023-01-11T12:43:26.752Z,11.30
2023-01-11T12:52:03.293Z,11.30
2023-01-11T12:54:45.215Z,12.00
2023-01-11T12:57:28.610Z,11.80
